sensor_id;sensor_type;location;lat;lon;timestamp;temperature;humidity
1546;DHT22;766;51.502;9.752;2023-08-06T00:01:19;15.00;99.90
1546;DHT22;766;51.502;9.752;2023-08-06T00:03:49;15.00;99.90
1546;DHT22;766;51.502;9.752;2023-08-06T00:06:18;15.00;99.90
1546;DHT22;766;51.502;9.752;2023-08-06T00:08:46;14.90;99.90
1546;DHT22;766;51.502;9.752;2023-08-06T00:11:16;14.90;99.90
1546;DHT22;766;51.502;9.752;2023-08-06T00:13:45;14.90;99.90
1546;DHT22;766;51.502;9.752;2023-08-06T00:16:14;14.90;99.90
1546;DHT22;766;51.502;9.752;2023-08-06T00:18:42;14.90;99.90
1546;DHT22;766;51.502;9.752;2023-08-06T00:21:10;14.90;99.90
1546;DHT22;766;51.502;9.752;2023-08-06T00:23:43;14.80;99.90
1546;DHT22;766;51.502;9.752;2023-08-06T00:26:13;14.80;99.90
1546;DHT22;766;51.502;9.752;2023-08-06T00:28:43;14.80;99.90
1546;DHT22;766;51.502;9.752;2023-08-06T00:31:11;14.90;99.90
1546;DHT22;766;51.502;9.752;2023-08-06T00:33:40;14.90;99.90
1546;DHT22;766;51.502;9.752;2023-08-06T00:36:08;15.00;99.90
1546;DHT22;766;51.502;9.752;2023-08-06T00:38:37;15.00;99.90
1546;DHT22;766;51.502;9.752;2023-08-06T00:41:09;15.10;99.90
1546;DHT22;766;51.502;9.752;2023-08-06T00:43:37;15.20;99.90
1546;DHT22;766;51.502;9.752;2023-08-06T00:46:07;15.20;99.90
1546;DHT22;766;51.502;9.752;2023-08-06T00:48:35;15.20;99.90
1546;DHT22;766;51.502;9.752;2023-08-06T00:51:04;15.30;99.90
1546;DHT22;766;51.502;9.752;2023-08-06T00:53:34;15.40;99.90
1546;DHT22;766;51.502;9.752;2023-08-06T00:56:03;15.50;99.90
1546;DHT22;766;51.502;9.752;2023-08-06T00:58:32;15.50;99.90
1546;DHT22;766;51.502;9.752;2023-08-06T01:01:00;15.50;99.90
1546;DHT22;766;51.502;9.752;2023-08-06T01:03:31;15.40;99.90
1546;DHT22;766;51.502;9.752;2023-08-06T01:06:00;15.20;99.90
1546;DHT22;766;51.502;9.752;2023-08-06T01:08:36;15.30;99.90
1546;DHT22;766;51.502;9.752;2023-08-06T01:11:17;15.40;99.90
1546;DHT22;766;51.502;9.752;2023-08-06T01:13:58;15.50;99.90
1546;DHT22;766;51.502;9.752;2023-08-06T01:16:36;15.50;99.90
1546;DHT22;766;51.502;9.752;2023-08-06T01:19:21;15.50;99.90
1546;DHT22;766;51.502;9.752;2023-08-06T01:22:11;15.50;99.90
1546;DHT22;766;51.502;9.752;2023-08-06T01:24:53;15.40;99.90
1546;DHT22;766;51.502;9.752;2023-08-06T01:27:42;15.40;99.90
1546;DHT22;766;51.502;9.752;2023-08-06T01:30:20;15.30;99.90
1546;DHT22;766;51.502;9.752;2023-08-06T01:33:00;15.20;99.90
1546;DHT22;766;51.502;9.752;2023-08-06T01:35:37;15.20;99.90
1546;DHT22;766;51.502;9.752;2023-08-06T01:38:08;15.10;99.90
1546;DHT22;766;51.502;9.752;2023-08-06T01:40:37;15.10;99.90
1546;DHT22;766;51.502;9.752;2023-08-06T01:43:08;15.20;99.90
1546;DHT22;766;51.502;9.752;2023-08-06T01:45:38;15.10;99.90
1546;DHT22;766;51.502;9.752;2023-08-06T01:48:07;15.10;99.90
1546;DHT22;766;51.502;9.752;2023-08-06T01:50:36;15.10;99.90
1546;DHT22;766;51.502;9.752;2023-08-06T01:53:06;15.10;99.90
1546;DHT22;766;51.502;9.752;2023-08-06T01:55:35;15.10;99.90
1546;DHT22;766;51.502;9.752;2023-08-06T01:58:11;15.00;99.90
1546;DHT22;766;51.502;9.752;2023-08-06T02:00:41;15.10;99.90
1546;DHT22;766;51.502;9.752;2023-08-06T02:03:12;15.20;99.90
1546;DHT22;766;51.502;9.752;2023-08-06T02:05:41;15.20;99.90
1546;DHT22;766;51.502;9.752;2023-08-06T02:08:12;15.10;99.90
1546;DHT22;766;51.502;9.752;2023-08-06T02:10:42;15.20;99.90
1546;DHT22;766;51.502;9.752;2023-08-06T02:13:11;15.20;99.90
1546;DHT22;766;51.502;9.752;2023-08-06T02:15:43;15.30;99.90
1546;DHT22;766;51.502;9.752;2023-08-06T02:18:12;15.10;99.90
1546;DHT22;766;51.502;9.752;2023-08-06T02:20:41;15.00;99.90
1546;DHT22;766;51.502;9.752;2023-08-06T02:23:11;14.80;99.90
1546;DHT22;766;51.502;9.752;2023-08-06T02:25:39;14.80;99.90
1546;DHT22;766;51.502;9.752;2023-08-06T02:28:08;14.80;99.90
1546;DHT22;766;51.502;9.752;2023-08-06T02:30:36;14.70;99.90
1546;DHT22;766;51.502;9.752;2023-08-06T02:33:07;14.70;99.90
1546;DHT22;766;51.502;9.752;2023-08-06T02:35:36;14.70;99.90
1546;DHT22;766;51.502;9.752;2023-08-06T02:38:04;14.70;99.90
1546;DHT22;766;51.502;9.752;2023-08-06T02:40:34;14.80;99.90
1546;DHT22;766;51.502;9.752;2023-08-06T02:43:02;14.90;99.90
1546;DHT22;766;51.502;9.752;2023-08-06T02:45:31;15.00;99.90
1546;DHT22;766;51.502;9.752;2023-08-06T02:47:59;15.00;99.90
1546;DHT22;766;51.502;9.752;2023-08-06T02:50:29;15.10;99.90
1546;DHT22;766;51.502;9.752;2023-08-06T02:52:58;15.10;99.90
1546;DHT22;766;51.502;9.752;2023-08-06T02:55:26;15.20;99.90
1546;DHT22;766;51.502;9.752;2023-08-06T02:57:56;15.10;99.90
1546;DHT22;766;51.502;9.752;2023-08-06T03:00:24;15.10;99.90
1546;DHT22;766;51.502;9.752;2023-08-06T03:02:53;15.10;99.90
1546;DHT22;766;51.502;9.752;2023-08-06T03:05:21;15.10;99.90
1546;DHT22;766;51.502;9.752;2023-08-06T03:07:49;15.00;99.90
1546;DHT22;766;51.502;9.752;2023-08-06T03:10:18;15.00;99.90
1546;DHT22;766;51.502;9.752;2023-08-06T03:12:47;15.00;99.90
1546;DHT22;766;51.502;9.752;2023-08-06T03:15:17;15.00;99.90
1546;DHT22;766;51.502;9.752;2023-08-06T03:17:45;15.10;99.90
1546;DHT22;766;51.502;9.752;2023-08-06T03:20:13;15.10;99.90
1546;DHT22;766;51.502;9.752;2023-08-06T03:22:42;15.00;99.90
1546;DHT22;766;51.502;9.752;2023-08-06T03:25:10;15.00;99.90
1546;DHT22;766;51.502;9.752;2023-08-06T03:27:39;14.90;99.90
1546;DHT22;766;51.502;9.752;2023-08-06T03:30:08;14.80;99.90
1546;DHT22;766;51.502;9.752;2023-08-06T03:32:38;14.70;99.90
1546;DHT22;766;51.502;9.752;2023-08-06T03:35:07;14.60;99.90
1546;DHT22;766;51.502;9.752;2023-08-06T03:37:35;14.50;99.90
1546;DHT22;766;51.502;9.752;2023-08-06T03:40:05;14.50;99.90
1546;DHT22;766;51.502;9.752;2023-08-06T03:42:35;14.40;99.90
1546;DHT22;766;51.502;9.752;2023-08-06T03:45:04;14.50;99.90
1546;DHT22;766;51.502;9.752;2023-08-06T03:47:33;14.50;99.90
1546;DHT22;766;51.502;9.752;2023-08-06T03:50:06;14.30;99.90
1546;DHT22;766;51.502;9.752;2023-08-06T03:52:35;14.30;99.90
1546;DHT22;766;51.502;9.752;2023-08-06T03:55:03;14.30;99.90
1546;DHT22;766;51.502;9.752;2023-08-06T03:57:33;14.20;99.90
1546;DHT22;766;51.502;9.752;2023-08-06T04:00:01;14.10;99.90
1546;DHT22;766;51.502;9.752;2023-08-06T04:02:30;14.10;99.90
1546;DHT22;766;51.502;9.752;2023-08-06T04:04:58;14.20;99.90
1546;DHT22;766;51.502;9.752;2023-08-06T04:07:28;14.20;99.90
1546;DHT22;766;51.502;9.752;2023-08-06T04:09:58;14.20;99.90
1546;DHT22;766;51.502;9.752;2023-08-06T04:12:27;14.20;99.90
1546;DHT22;766;51.502;9.752;2023-08-06T04:14:58;14.00;99.90
1546;DHT22;766;51.502;9.752;2023-08-06T04:17:27;13.90;99.90
1546;DHT22;766;51.502;9.752;2023-08-06T04:19:55;13.70;99.90
1546;DHT22;766;51.502;9.752;2023-08-06T04:22:25;13.70;99.90
1546;DHT22;766;51.502;9.752;2023-08-06T04:24:55;13.70;99.90
1546;DHT22;766;51.502;9.752;2023-08-06T04:27:23;13.70;99.90
1546;DHT22;766;51.502;9.752;2023-08-06T04:29:52;13.60;99.90
1546;DHT22;766;51.502;9.752;2023-08-06T04:32:21;13.50;99.90
1546;DHT22;766;51.502;9.752;2023-08-06T04:34:49;13.40;99.90
1546;DHT22;766;51.502;9.752;2023-08-06T04:37:17;13.30;99.90
1546;DHT22;766;51.502;9.752;2023-08-06T04:39:46;13.30;99.90
1546;DHT22;766;51.502;9.752;2023-08-06T04:42:15;13.40;99.90
1546;DHT22;766;51.502;9.752;2023-08-06T04:44:44;13.50;99.90
1546;DHT22;766;51.502;9.752;2023-08-06T04:47:13;13.40;99.90
1546;DHT22;766;51.502;9.752;2023-08-06T04:49:42;13.50;99.90
1546;DHT22;766;51.502;9.752;2023-08-06T04:52:10;13.40;99.90
1546;DHT22;766;51.502;9.752;2023-08-06T04:54:39;13.50;99.90
1546;DHT22;766;51.502;9.752;2023-08-06T04:57:07;13.50;99.90
1546;DHT22;766;51.502;9.752;2023-08-06T04:59:37;13.60;99.90
1546;DHT22;766;51.502;9.752;2023-08-06T05:02:05;13.80;99.90
1546;DHT22;766;51.502;9.752;2023-08-06T05:04:34;13.90;99.90
1546;DHT22;766;51.502;9.752;2023-08-06T05:07:06;14.00;99.90
1546;DHT22;766;51.502;9.752;2023-08-06T05:09:34;14.00;99.90
1546;DHT22;766;51.502;9.752;2023-08-06T05:12:04;14.10;99.90
1546;DHT22;766;51.502;9.752;2023-08-06T05:14:32;14.30;99.90
1546;DHT22;766;51.502;9.752;2023-08-06T05:17:02;14.40;99.90
1546;DHT22;766;51.502;9.752;2023-08-06T05:19:31;14.60;99.90
1546;DHT22;766;51.502;9.752;2023-08-06T05:22:00;14.80;99.90
1546;DHT22;766;51.502;9.752;2023-08-06T05:24:29;14.90;99.90
1546;DHT22;766;51.502;9.752;2023-08-06T05:26:57;15.00;99.90
1546;DHT22;766;51.502;9.752;2023-08-06T05:29:26;15.00;99.90
1546;DHT22;766;51.502;9.752;2023-08-06T05:31:54;15.10;99.90
1546;DHT22;766;51.502;9.752;2023-08-06T05:34:27;15.30;99.90
1546;DHT22;766;51.502;9.752;2023-08-06T05:36:55;15.40;99.90
1546;DHT22;766;51.502;9.752;2023-08-06T05:39:24;15.50;99.90
1546;DHT22;766;51.502;9.752;2023-08-06T05:41:52;15.60;99.90
1546;DHT22;766;51.502;9.752;2023-08-06T05:44:20;15.90;99.90
1546;DHT22;766;51.502;9.752;2023-08-06T05:46:49;16.00;99.90
1546;DHT22;766;51.502;9.752;2023-08-06T05:49:18;16.20;99.90
1546;DHT22;766;51.502;9.752;2023-08-06T05:51:48;16.50;99.90
1546;DHT22;766;51.502;9.752;2023-08-06T05:54:17;16.80;99.90
1546;DHT22;766;51.502;9.752;2023-08-06T05:56:45;17.40;99.90
1546;DHT22;766;51.502;9.752;2023-08-06T05:59:14;18.00;99.90
1546;DHT22;766;51.502;9.752;2023-08-06T06:01:42;18.70;99.90
1546;DHT22;766;51.502;9.752;2023-08-06T06:04:10;18.90;99.90
1546;DHT22;766;51.502;9.752;2023-08-06T06:06:39;19.50;99.90
1546;DHT22;766;51.502;9.752;2023-08-06T06:09:10;19.70;99.90
1546;DHT22;766;51.502;9.752;2023-08-06T06:11:38;19.80;99.90
1546;DHT22;766;51.502;9.752;2023-08-06T06:14:07;20.00;99.90
1546;DHT22;766;51.502;9.752;2023-08-06T06:16:35;20.40;99.90
1546;DHT22;766;51.502;9.752;2023-08-06T06:19:03;20.20;99.90
1546;DHT22;766;51.502;9.752;2023-08-06T06:21:32;19.60;99.90
1546;DHT22;766;51.502;9.752;2023-08-06T06:24:00;20.00;99.90
1546;DHT22;766;51.502;9.752;2023-08-06T06:26:30;20.60;99.90
1546;DHT22;766;51.502;9.752;2023-08-06T06:28:59;21.00;99.90
1546;DHT22;766;51.502;9.752;2023-08-06T06:31:28;21.30;99.90
1546;DHT22;766;51.502;9.752;2023-08-06T06:33:56;21.70;99.90
1546;DHT22;766;51.502;9.752;2023-08-06T06:36:25;21.80;99.90
1546;DHT22;766;51.502;9.752;2023-08-06T06:38:53;22.30;99.90
1546;DHT22;766;51.502;9.752;2023-08-06T06:41:22;22.50;99.90
1546;DHT22;766;51.502;9.752;2023-08-06T06:43:52;22.40;99.90
1546;DHT22;766;51.502;9.752;2023-08-06T06:46:20;22.50;99.90
1546;DHT22;766;51.502;9.752;2023-08-06T06:48:48;22.60;99.90
1546;DHT22;766;51.502;9.752;2023-08-06T06:51:17;22.30;99.90
1546;DHT22;766;51.502;9.752;2023-08-06T06:53:45;22.50;99.90
1546;DHT22;766;51.502;9.752;2023-08-06T06:56:14;22.80;99.90
1546;DHT22;766;51.502;9.752;2023-08-06T06:58:42;23.00;99.90
1546;DHT22;766;51.502;9.752;2023-08-06T07:01:12;23.20;99.90
1546;DHT22;766;51.502;9.752;2023-08-06T07:03:40;22.80;99.90
1546;DHT22;766;51.502;9.752;2023-08-06T07:06:09;22.30;99.90
1546;DHT22;766;51.502;9.752;2023-08-06T07:08:39;21.60;99.90
1546;DHT22;766;51.502;9.752;2023-08-06T07:11:07;21.80;99.90
1546;DHT22;766;51.502;9.752;2023-08-06T07:13:35;21.80;99.90
1546;DHT22;766;51.502;9.752;2023-08-06T07:16:04;21.90;99.90
1546;DHT22;766;51.502;9.752;2023-08-06T07:18:37;21.90;99.90
1546;DHT22;766;51.502;9.752;2023-08-06T07:21:05;21.40;99.90
1546;DHT22;766;51.502;9.752;2023-08-06T07:23:34;21.30;99.90
1546;DHT22;766;51.502;9.752;2023-08-06T07:26:02;21.40;99.90
1546;DHT22;766;51.502;9.752;2023-08-06T07:28:31;21.40;99.90
1546;DHT22;766;51.502;9.752;2023-08-06T07:31:04;21.20;99.90
1546;DHT22;766;51.502;9.752;2023-08-06T07:33:36;21.60;99.90
1546;DHT22;766;51.502;9.752;2023-08-06T07:36:10;22.10;99.90
1546;DHT22;766;51.502;9.752;2023-08-06T07:38:38;22.30;99.90
1546;DHT22;766;51.502;9.752;2023-08-06T07:41:07;22.70;99.90
1546;DHT22;766;51.502;9.752;2023-08-06T07:43:36;22.80;99.90
1546;DHT22;766;51.502;9.752;2023-08-06T07:46:05;23.40;99.90
1546;DHT22;766;51.502;9.752;2023-08-06T07:48:33;23.30;99.90
1546;DHT22;766;51.502;9.752;2023-08-06T07:51:03;22.20;99.90
1546;DHT22;766;51.502;9.752;2023-08-06T07:53:31;21.10;99.90
1546;DHT22;766;51.502;9.752;2023-08-06T07:56:00;20.20;99.90
1546;DHT22;766;51.502;9.752;2023-08-06T07:58:29;19.80;99.90
1546;DHT22;766;51.502;9.752;2023-08-06T08:00:58;19.60;99.90
1546;DHT22;766;51.502;9.752;2023-08-06T08:03:30;19.40;99.90
1546;DHT22;766;51.502;9.752;2023-08-06T08:05:59;19.20;99.90
1546;DHT22;766;51.502;9.752;2023-08-06T08:08:28;19.10;99.90
1546;DHT22;766;51.502;9.752;2023-08-06T08:10:57;19.00;99.90
1546;DHT22;766;51.502;9.752;2023-08-06T08:13:28;18.80;99.90
1546;DHT22;766;51.502;9.752;2023-08-06T08:15:57;18.30;99.90
1546;DHT22;766;51.502;9.752;2023-08-06T08:18:26;18.20;99.90
1546;DHT22;766;51.502;9.752;2023-08-06T08:20:55;17.90;99.90
1546;DHT22;766;51.502;9.752;2023-08-06T08:23:23;17.90;99.90
1546;DHT22;766;51.502;9.752;2023-08-06T08:25:53;17.90;99.90
1546;DHT22;766;51.502;9.752;2023-08-06T08:28:21;17.90;99.90
1546;DHT22;766;51.502;9.752;2023-08-06T08:30:50;17.80;99.90
1546;DHT22;766;51.502;9.752;2023-08-06T08:33:18;18.00;99.90
1546;DHT22;766;51.502;9.752;2023-08-06T08:35:46;18.10;99.90
1546;DHT22;766;51.502;9.752;2023-08-06T08:38:15;18.10;99.90
1546;DHT22;766;51.502;9.752;2023-08-06T08:40:46;18.50;99.90
1546;DHT22;766;51.502;9.752;2023-08-06T08:43:17;19.10;99.90
1546;DHT22;766;51.502;9.752;2023-08-06T08:45:50;19.30;99.90
1546;DHT22;766;51.502;9.752;2023-08-06T08:48:19;19.40;99.90
1546;DHT22;766;51.502;9.752;2023-08-06T08:50:49;19.30;99.90
1546;DHT22;766;51.502;9.752;2023-08-06T08:53:17;19.10;99.90
1546;DHT22;766;51.502;9.752;2023-08-06T08:55:48;19.00;99.90
1546;DHT22;766;51.502;9.752;2023-08-06T08:58:17;19.20;99.90
1546;DHT22;766;51.502;9.752;2023-08-06T09:00:46;19.60;99.90
1546;DHT22;766;51.502;9.752;2023-08-06T09:03:16;20.00;99.90
1546;DHT22;766;51.502;9.752;2023-08-06T09:05:47;20.20;99.90
1546;DHT22;766;51.502;9.752;2023-08-06T09:08:18;20.20;99.90
1546;DHT22;766;51.502;9.752;2023-08-06T09:10:49;20.30;99.90
1546;DHT22;766;51.502;9.752;2023-08-06T09:13:20;20.40;99.90
1546;DHT22;766;51.502;9.752;2023-08-06T09:15:50;20.30;99.90
1546;DHT22;766;51.502;9.752;2023-08-06T09:18:25;20.30;99.90
1546;DHT22;766;51.502;9.752;2023-08-06T09:20:55;20.40;99.90
1546;DHT22;766;51.502;9.752;2023-08-06T09:23:28;20.90;99.90
1546;DHT22;766;51.502;9.752;2023-08-06T09:25:58;21.50;99.90
1546;DHT22;766;51.502;9.752;2023-08-06T09:28:36;23.40;99.90
1546;DHT22;766;51.502;9.752;2023-08-06T09:31:06;24.80;99.90
1546;DHT22;766;51.502;9.752;2023-08-06T09:33:36;25.40;99.90
1546;DHT22;766;51.502;9.752;2023-08-06T09:36:09;25.10;99.90
1546;DHT22;766;51.502;9.752;2023-08-06T09:38:38;24.50;99.90
1546;DHT22;766;51.502;9.752;2023-08-06T09:41:08;23.80;99.90
1546;DHT22;766;51.502;9.752;2023-08-06T09:43:42;23.40;99.90
1546;DHT22;766;51.502;9.752;2023-08-06T09:46:12;23.30;99.90
1546;DHT22;766;51.502;9.752;2023-08-06T09:48:44;23.20;99.90
1546;DHT22;766;51.502;9.752;2023-08-06T09:51:13;23.80;99.90
1546;DHT22;766;51.502;9.752;2023-08-06T09:53:42;24.00;99.90
1546;DHT22;766;51.502;9.752;2023-08-06T09:56:12;23.80;99.90
1546;DHT22;766;51.502;9.752;2023-08-06T09:58:44;24.00;99.90
1546;DHT22;766;51.502;9.752;2023-08-06T10:01:25;24.40;99.90
1546;DHT22;766;51.502;9.752;2023-08-06T10:03:54;24.70;99.90
1546;DHT22;766;51.502;9.752;2023-08-06T10:06:24;24.50;99.90
1546;DHT22;766;51.502;9.752;2023-08-06T10:08:54;23.90;99.90
1546;DHT22;766;51.502;9.752;2023-08-06T10:11:24;23.50;99.90
1546;DHT22;766;51.502;9.752;2023-08-06T10:13:57;23.30;99.90
1546;DHT22;766;51.502;9.752;2023-08-06T10:16:26;23.00;99.90
1546;DHT22;766;51.502;9.752;2023-08-06T10:18:55;23.40;99.90
1546;DHT22;766;51.502;9.752;2023-08-06T10:21:24;24.60;99.90
1546;DHT22;766;51.502;9.752;2023-08-06T10:23:57;24.20;99.90
1546;DHT22;766;51.502;9.752;2023-08-06T10:26:25;24.40;99.90
1546;DHT22;766;51.502;9.752;2023-08-06T10:28:56;26.00;99.90
1546;DHT22;766;51.502;9.752;2023-08-06T10:31:53;27.60;99.90
1546;DHT22;766;51.502;9.752;2023-08-06T10:34:22;29.50;99.90
1546;DHT22;766;51.502;9.752;2023-08-06T10:36:54;29.20;99.90
1546;DHT22;766;51.502;9.752;2023-08-06T10:39:23;27.60;99.90
1546;DHT22;766;51.502;9.752;2023-08-06T10:41:57;27.10;99.90
1546;DHT22;766;51.502;9.752;2023-08-06T10:44:28;26.60;99.90
1546;DHT22;766;51.502;9.752;2023-08-06T10:47:26;26.00;99.90
1546;DHT22;766;51.502;9.752;2023-08-06T10:49:55;25.10;99.90
1546;DHT22;766;51.502;9.752;2023-08-06T10:52:44;25.10;99.90
1546;DHT22;766;51.502;9.752;2023-08-06T10:55:23;26.10;99.90
1546;DHT22;766;51.502;9.752;2023-08-06T10:57:52;26.40;99.90
1546;DHT22;766;51.502;9.752;2023-08-06T11:00:23;27.00;99.90
1546;DHT22;766;51.502;9.752;2023-08-06T11:02:52;26.50;99.90
1546;DHT22;766;51.502;9.752;2023-08-06T11:05:21;27.60;99.90
1546;DHT22;766;51.502;9.752;2023-08-06T11:07:49;29.10;99.90
1546;DHT22;766;51.502;9.752;2023-08-06T11:10:19;28.50;99.90
1546;DHT22;766;51.502;9.752;2023-08-06T11:12:47;28.90;99.90
1546;DHT22;766;51.502;9.752;2023-08-06T11:15:16;30.00;99.90
1546;DHT22;766;51.502;9.752;2023-08-06T11:17:46;29.40;99.90
1546;DHT22;766;51.502;9.752;2023-08-06T11:20:15;30.00;99.90
1546;DHT22;766;51.502;9.752;2023-08-06T11:22:44;28.70;99.90
1546;DHT22;766;51.502;9.752;2023-08-06T11:25:12;27.40;99.90
1546;DHT22;766;51.502;9.752;2023-08-06T11:27:40;26.50;99.90
1546;DHT22;766;51.502;9.752;2023-08-06T11:30:11;25.50;99.90
1546;DHT22;766;51.502;9.752;2023-08-06T11:32:47;25.60;99.90
1546;DHT22;766;51.502;9.752;2023-08-06T11:35:16;27.80;99.90
1546;DHT22;766;51.502;9.752;2023-08-06T11:37:45;29.60;99.90
1546;DHT22;766;51.502;9.752;2023-08-06T11:40:15;30.30;99.90
1546;DHT22;766;51.502;9.752;2023-08-06T11:42:44;31.20;99.90
1546;DHT22;766;51.502;9.752;2023-08-06T11:45:14;31.20;99.90
1546;DHT22;766;51.502;9.752;2023-08-06T11:47:51;31.40;99.90
1546;DHT22;766;51.502;9.752;2023-08-06T11:50:23;32.00;99.90
1546;DHT22;766;51.502;9.752;2023-08-06T11:52:56;32.20;99.90
1546;DHT22;766;51.502;9.752;2023-08-06T11:55:25;32.60;99.90
1546;DHT22;766;51.502;9.752;2023-08-06T11:57:55;33.00;99.90
1546;DHT22;766;51.502;9.752;2023-08-06T12:00:24;33.10;99.90
1546;DHT22;766;51.502;9.752;2023-08-06T12:02:56;31.80;99.90
1546;DHT22;766;51.502;9.752;2023-08-06T12:05:30;30.20;99.90
1546;DHT22;766;51.502;9.752;2023-08-06T14:37:26;16.40;99.90
1546;DHT22;766;51.502;9.752;2023-08-06T15:12:40;16.50;99.90
1546;DHT22;766;51.502;9.752;2023-08-06T15:15:09;16.70;99.90
1546;DHT22;766;51.502;9.752;2023-08-06T15:20:12;16.40;99.90
1546;DHT22;766;51.502;9.752;2023-08-06T15:22:42;16.70;99.90
1546;DHT22;766;51.502;9.752;2023-08-06T15:25:11;16.60;99.90
1546;DHT22;766;51.502;9.752;2023-08-06T15:27:39;16.30;99.90
1546;DHT22;766;51.502;9.752;2023-08-06T15:30:08;16.30;99.90
1546;DHT22;766;51.502;9.752;2023-08-06T15:32:37;16.30;99.90
1546;DHT22;766;51.502;9.752;2023-08-06T15:35:06;16.20;99.90
1546;DHT22;766;51.502;9.752;2023-08-06T15:37:35;16.10;99.90
1546;DHT22;766;51.502;9.752;2023-08-06T15:40:06;16.40;99.90
1546;DHT22;766;51.502;9.752;2023-08-06T15:42:35;16.10;99.90
1546;DHT22;766;51.502;9.752;2023-08-06T15:47:32;15.80;99.90
1546;DHT22;766;51.502;9.752;2023-08-06T15:50:07;16.20;99.90
1546;DHT22;766;51.502;9.752;2023-08-06T15:52:36;16.00;99.90
1546;DHT22;766;51.502;9.752;2023-08-06T15:55:07;16.00;99.90
1546;DHT22;766;51.502;9.752;2023-08-06T15:57:36;16.10;99.90
1546;DHT22;766;51.502;9.752;2023-08-06T16:00:06;16.20;99.90
1546;DHT22;766;51.502;9.752;2023-08-06T16:02:34;16.30;99.90
1546;DHT22;766;51.502;9.752;2023-08-06T16:05:03;16.30;99.90
1546;DHT22;766;51.502;9.752;2023-08-06T16:07:35;16.30;99.90
1546;DHT22;766;51.502;9.752;2023-08-06T16:10:05;16.40;99.90
1546;DHT22;766;51.502;9.752;2023-08-06T16:12:34;16.50;99.90
1546;DHT22;766;51.502;9.752;2023-08-06T16:15:03;16.50;99.90
1546;DHT22;766;51.502;9.752;2023-08-06T16:17:31;16.50;99.90
1546;DHT22;766;51.502;9.752;2023-08-06T16:19:59;16.40;99.90
1546;DHT22;766;51.502;9.752;2023-08-06T16:22:28;16.30;99.90
1546;DHT22;766;51.502;9.752;2023-08-06T16:24:56;16.30;99.90
1546;DHT22;766;51.502;9.752;2023-08-06T16:27:26;16.30;99.90
1546;DHT22;766;51.502;9.752;2023-08-06T16:29:55;16.30;99.90
1546;DHT22;766;51.502;9.752;2023-08-06T16:32:23;16.40;99.90
1546;DHT22;766;51.502;9.752;2023-08-06T16:34:51;16.40;99.90
1546;DHT22;766;51.502;9.752;2023-08-06T16:37:20;16.40;99.90
1546;DHT22;766;51.502;9.752;2023-08-06T16:39:49;16.30;99.90
1546;DHT22;766;51.502;9.752;2023-08-06T16:42:17;16.40;99.90
1546;DHT22;766;51.502;9.752;2023-08-06T16:44:47;16.20;99.90
1546;DHT22;766;51.502;9.752;2023-08-06T16:47:15;16.30;99.90
1546;DHT22;766;51.502;9.752;2023-08-06T16:49:43;16.20;99.90
1546;DHT22;766;51.502;9.752;2023-08-06T16:52:12;16.10;99.90
